Time;durP1;ratioP1;P1;durP2;ratioP2;P2;SDS_P1;SDS_P2;PMS_P1;PMS_P2;Temp;Humidity;BMP_temperature;BMP_pressure;BME280_temperature;BME280_humidity;BME280_pressure;Samples;Min_cycle;Max_cycle;Signal;HPM_P1;HPM_P2
2022/10/11 00:00:33;;;;;;;10.07;5.15;;;;;;;15.07;87.73;101304.47;4992464;28;20045;-72
2022/10/11 00:02:58;;;;;;;8.63;5.30;;;;;;;15.14;87.66;101315.94;4992100;28;20018;-69
2022/10/11 00:05:24;;;;;;;10.38;4.80;;;;;;;15.15;87.92;101304.72;4992260;28;20026;-71
2022/10/11 00:07:49;;;;;;;8.98;5.47;;;;;;;15.19;88.05;101302.28;5007276;28;20038;-68
2022/10/11 00:10:15;;;;;;;10.75;5.32;;;;;;;15.26;87.98;101303.31;4992211;28;20034;-72
2022/10/11 00:12:41;;;;;;;8.95;5.55;;;;;;;15.00;88.37;101253.09;4991737;28;20492;-72
2022/10/11 00:15:08;;;;;;;10.52;5.18;;;;;;;14.95;88.86;101247.75;4991823;28;20058;-71
2022/10/11 00:17:33;;;;;;;9.35;4.80;;;;;;;14.95;88.92;101257.28;4991870;28;20031;-71
2022/10/11 00:19:59;;;;;;;9.95;5.28;;;;;;;15.11;88.82;101287.25;4991869;28;20027;-71
2022/10/11 00:22:25;;;;;;;9.98;4.68;;;;;;;15.13;88.29;101296.00;4991755;28;20084;-69
2022/10/11 00:24:51;;;;;;;10.57;4.70;;;;;;;15.12;87.82;101283.81;4991613;28;20033;-68
2022/10/11 00:27:17;;;;;;;8.57;4.43;;;;;;;15.12;87.23;101294.22;4991431;28;20057;-71
2022/10/11 00:29:42;;;;;;;6.93;4.32;;;;;;;14.74;87.08;101234.09;4991714;28;20034;-69
2022/10/11 00:32:08;;;;;;;9.38;4.35;;;;;;;14.99;87.37;101288.63;5006794;28;20192;-71
2022/10/11 00:34:33;;;;;;;11.75;4.50;;;;;;;14.71;87.44;101253.94;5006708;28;20386;-71
2022/10/11 00:36:59;;;;;;;9.45;4.53;;;;;;;14.90;87.83;101287.47;4991620;28;20503;-71
2022/10/11 00:39:24;;;;;;;12.35;5.47;;;;;;;14.85;88.09;101289.91;4989266;28;20053;-71
2022/10/11 00:41:49;;;;;;;10.10;5.38;;;;;;;14.71;88.82;101298.13;4991328;28;20026;-70
2022/10/11 00:44:23;;;;;;;10.57;4.82;;;;;;;14.44;89.09;101242.59;4991127;28;20022;-70
2022/10/11 00:47:03;;;;;;;8.60;5.00;;;;;;;14.63;89.19;101294.38;4991522;28;20097;-70
2022/10/11 00:49:34;;;;;;;9.77;5.15;;;;;;;14.61;88.99;101283.03;4991367;28;20038;-70
2022/10/11 00:52:14;;;;;;;8.68;4.30;;;;;;;14.67;89.14;101275.47;4991113;28;20030;-71
2022/10/11 00:54:43;;;;;;;9.93;5.05;;;;;;;14.70;88.37;101278.19;4991492;28;20034;-70
2022/10/11 00:57:15;;;;;;;11.38;4.57;;;;;;;14.61;88.44;101272.63;4991389;28;20049;-70
2022/10/11 00:59:44;;;;;;;8.60;4.38;;;;;;;14.43;88.50;101238.22;4991369;28;20105;-71
2022/10/11 01:02:10;;;;;;;9.38;4.30;;;;;;;14.69;88.20;101272.91;4991008;28;20026;-70
2022/10/11 01:04:36;;;;;;;9.10;4.80;;;;;;;14.68;88.20;101269.44;4990663;28;20046;-70
2022/10/11 01:07:02;;;;;;;8.45;4.72;;;;;;;14.61;88.29;101262.22;4990799;28;20470;-69
2022/10/11 01:09:28;;;;;;;8.43;4.60;;;;;;;14.70;88.45;101266.88;4991198;28;20031;-70
2022/10/11 01:11:58;;;;;;;9.38;4.85;;;;;;;14.51;88.32;101227.25;5006305;28;20049;-71
2022/10/11 01:14:23;;;;;;;10.10;5.18;;;;;;;14.64;88.66;101269.25;4991171;28;20428;-71
2022/10/11 01:16:59;;;;;;;7.32;4.70;;;;;;;14.61;89.12;101272.63;4991019;28;20171;-71
2022/10/11 01:19:42;;;;;;;9.50;4.88;;;;;;;14.58;89.16;101275.13;4990920;28;20053;-70
2022/10/11 01:22:26;;;;;;;9.25;5.18;;;;;;;14.50;89.87;101279.19;4991312;28;20031;-70
2022/10/11 01:25:06;;;;;;;11.73;5.32;;;;;;;14.41;90.14;101269.38;4991059;28;20039;-70
2022/10/11 01:27:41;;;;;;;9.30;5.13;;;;;;;14.31;90.97;101265.56;4990804;28;20034;-71
2022/10/11 01:30:18;;;;;;;11.48;5.32;;;;;;;14.22;91.06;101266.13;4991280;28;20097;-71
2022/10/11 01:33:03;;;;;;;8.93;5.00;;;;;;;14.22;91.02;101257.47;4990958;28;20026;-72
2022/10/11 01:35:42;;;;;;;10.10;4.53;;;;;;;14.19;91.33;101260.84;4990766;28;20030;-72
2022/10/11 01:38:45;;;;;;;10.35;5.40;;;;;;;14.14;91.72;101254.59;4990521;28;20022;-72
2022/10/11 01:41:20;;;;;;;10.57;4.78;;;;;;;14.14;92.36;101248.50;4990477;28;20030;-72
2022/10/11 01:43:48;;;;;;;14.40;5.47;;;;;;;14.16;92.27;101245.13;5005669;28;20030;-71
2022/10/11 01:46:15;;;;;;;9.30;4.57;;;;;;;14.16;92.35;101249.47;4991074;28;20421;-72
2022/10/11 01:48:52;;;;;;;9.95;5.13;;;;;;;14.17;92.39;101241.72;4990705;28;20117;-71
2022/10/11 01:51:22;;;;;;;11.88;4.72;;;;;;;14.16;92.54;101245.13;4990850;28;20035;-72
2022/10/11 01:54:02;;;;;;;10.85;5.32;;;;;;;14.15;92.25;101232.13;4990748;28;20027;-72
2022/10/11 01:57:02;;;;;;;9.38;4.85;;;;;;;14.13;92.36;101238.94;4990547;28;20034;-72
2022/10/11 01:59:57;;;;;;;12.10;5.10;;;;;;;14.12;92.47;101232.88;4990876;28;20026;-72
2022/10/11 02:02:44;;;;;;;9.93;4.75;;;;;;;14.12;92.50;101230.28;4990583;28;20042;-71
2022/10/11 02:05:15;;;;;;;9.60;4.80;;;;;;;14.17;92.05;101239.13;4990392;28;20033;-71
2022/10/11 02:08:03;;;;;;;14.18;5.10;;;;;;;14.19;91.74;101229.69;4990729;28;20034;-72
2022/10/11 02:10:43;;;;;;;12.73;4.90;;;;;;;14.26;91.44;101233.34;4990316;28;20552;-72
2022/10/11 02:13:39;;;;;;;14.38;5.25;;;;;;;14.25;91.32;101234.19;4990550;28;20462;-72
2022/10/11 02:16:09;;;;;;;9.35;5.10;;;;;;;14.05;92.48;101230.91;4990792;28;20046;-71
2022/10/11 02:18:40;;;;;;;13.07;5.40;;;;;;;14.03;92.42;101235.16;4994058;28;20412;-71
2022/10/11 02:21:09;;;;;;;8.27;4.80;;;;;;;13.88;92.88;101233.78;4994107;28;20109;-71
2022/10/11 02:23:50;;;;;;;11.13;5.40;;;;;;;13.91;92.34;101227.84;4994476;28;20038;-72
2022/10/11 02:26:18;;;;;;;9.82;5.60;;;;;;;13.90;91.60;101236.44;4993824;28;20467;-71
2022/10/11 02:28:46;;;;;;;12.95;4.93;;;;;;;13.86;91.77;101234.56;4994064;28;20030;-74
2022/10/11 02:31:16;;;;;;;12.32;5.38;;;;;;;13.74;92.62;101229.81;4993783;28;20053;-71
2022/10/11 02:33:52;;;;;;;9.73;5.43;;;;;;;13.65;93.06;101234.69;4993797;28;20053;-72
2022/10/11 02:36:35;;;;;;;11.13;5.63;;;;;;;13.57;94.52;101230.09;4993407;28;20022;-72
2022/10/11 02:39:06;;;;;;;11.98;5.18;;;;;;;13.25;94.85;101188.22;4993799;28;20408;-72
2022/10/11 02:41:38;;;;;;;10.95;5.65;;;;;;;13.52;95.49;101230.72;4993506;28;20026;-72
2022/10/11 02:44:08;;;;;;;10.40;5.35;;;;;;;13.30;95.52;101192.72;4993437;28;20103;-72
2022/10/11 02:46:34;;;;;;;;;;;;;;;13.37;95.87;101231.94;4993985;28;20418;-72
2022/10/11 02:49:00;;;;;;;11.25;5.28;;;;;;;13.35;95.62;101225.75;4993460;28;19916;-69
2022/10/11 02:51:30;;;;;;;10.45;5.68;;;;;;;13.42;95.35;101238.19;4993367;28;20382;-72
2022/10/11 02:53:56;;;;;;;11.35;5.72;;;;;;;13.41;95.32;101236.41;4993471;28;20412;-72
2022/10/11 02:56:21;;;;;;;13.40;5.43;;;;;;;13.22;94.64;101202.78;4991146;28;20039;-71
2022/10/11 02:58:48;;;;;;;11.30;5.18;;;;;;;13.36;94.29;101231.84;4993181;28;20563;-71
2022/10/11 03:01:13;;;;;;;13.70;5.82;;;;;;;13.26;94.48;101222.84;4990198;28;20566;-70
2022/10/11 03:03:39;;;;;;;12.52;5.35;;;;;;;13.30;94.44;101229.91;4992981;28;20033;-69
2022/10/11 03:06:05;;;;;;;12.13;5.57;;;;;;;13.42;93.79;101219.13;4991925;28;20022;-71
2022/10/11 03:08:31;;;;;;;15.23;6.28;;;;;;;13.52;92.74;101218.66;4993212;28;20117;-70
2022/10/11 03:10:56;;;;;;;11.98;5.15;;;;;;;13.50;92.40;101220.31;4982155;28;20042;-71
2022/10/11 03:13:22;;;;;;;15.25;5.85;;;;;;;13.57;92.20;101224.00;4979580;28;20424;-73
2022/10/11 03:15:49;;;;;;;10.52;5.80;;;;;;;13.69;92.13;101218.38;4992836;28;20030;-75
2022/10/11 03:18:15;;;;;;;8.38;5.13;;;;;;;13.51;90.60;101179.69;4992905;28;20036;-72
2022/10/11 03:20:40;;;;;;;12.38;5.63;;;;;;;13.59;92.07;101219.75;4993004;28;20027;-72
2022/10/11 03:23:06;;;;;;;19.90;5.88;;;;;;;13.53;92.56;101216.94;4993062;28;20027;-73
2022/10/11 03:25:31;;;;;;;15.07;5.88;;;;;;;13.53;93.12;101216.94;4992724;28;20035;-73
2022/10/11 03:27:56;;;;;;;14.82;6.00;;;;;;;13.49;93.60;101213.34;4992299;28;20587;-73
2022/10/11 03:30:22;;;;;;;14.05;5.60;;;;;;;13.54;93.96;101221.31;4992524;28;20034;-73
2022/10/11 03:32:48;;;;;;;14.80;5.47;;;;;;;13.57;93.54;101224.00;4992519;28;20417;-74
2022/10/11 03:35:13;;;;;;;13.60;5.90;;;;;;;13.52;93.10;101212.56;4992602;28;20039;-73
2022/10/11 03:37:39;;;;;;;17.15;5.72;;;;;;;13.60;92.96;101218.94;4992804;28;20030;-73
2022/10/11 03:40:07;;;;;;;10.05;5.70;;;;;;;13.71;92.31;101227.13;4992669;28;20030;-72
2022/10/11 03:42:32;;;;;;;14.38;5.75;;;;;;;13.80;91.64;101229.16;4990370;28;20434;-73
2022/10/11 03:45:00;;;;;;;11.68;5.60;;;;;;;13.87;90.50;101219.03;4992069;28;20050;-73
2022/10/11 03:47:26;;;;;;;12.52;5.20;;;;;;;13.93;89.59;101220.97;4992295;28;20034;-73
2022/10/11 03:49:51;;;;;;;11.02;4.97;;;;;;;13.94;89.02;101211.47;4992204;28;20474;-73
2022/10/11 03:52:16;;;;;;;10.55;5.30;;;;;;;13.97;88.78;101221.94;4991558;28;20022;-73
2022/10/11 03:54:42;;;;;;;11.82;5.18;;;;;;;13.97;88.71;101220.25;4990411;28;20042;-73
2022/10/11 03:57:07;;;;;;;12.18;5.55;;;;;;;13.80;87.92;101179.84;4992138;28;20022;-73
2022/10/11 03:59:33;;;;;;;16.75;6.30;;;;;;;13.99;87.36;101210.78;4992106;28;20528;-73
2022/10/11 04:01:58;;;;;;;13.40;5.50;;;;;;;13.83;87.22;101177.34;4991950;28;20022;-73
2022/10/11 04:04:24;;;;;;;15.73;6.18;;;;;;;14.12;87.18;101209.53;4991950;28;20735;-73
2022/10/11 04:06:49;;;;;;;13.23;5.88;;;;;;;14.15;86.84;101214.81;4991962;28;20031;-73
2022/10/11 04:09:14;;;;;;;15.95;6.13;;;;;;;14.20;86.77;101210.66;4991835;28;20081;-71
2022/10/11 04:11:40;;;;;;;14.80;5.75;;;;;;;14.27;86.23;101209.16;4991224;28;20034;-73
2022/10/11 04:14:05;;;;;;;19.15;6.05;;;;;;;14.11;86.29;101204.28;4991739;28;20026;-73
2022/10/11 04:16:31;;;;;;;17.85;6.07;;;;;;;14.16;86.30;101218.31;4991629;28;20023;-72
2022/10/11 04:18:56;;;;;;;14.30;6.03;;;;;;;14.14;86.56;101220.81;5022432;28;20042;-72
2022/10/11 04:21:21;;;;;;;14.40;6.72;;;;;;;14.15;86.83;101216.53;4991769;28;20029;-72
2022/10/11 04:23:47;;;;;;;19.05;6.22;;;;;;;14.15;86.72;101216.53;4991719;28;20026;-70
2022/10/11 04:26:13;;;;;;;17.02;6.18;;;;;;;13.71;86.71;101147.53;4991714;28;20109;-70
2022/10/11 04:28:39;;;;;;;16.95;5.80;;;;;;;14.09;87.15;101217.19;4991506;28;20548;-70
2022/10/11 04:31:06;;;;;;;16.50;5.47;;;;;;;13.96;87.61;101221.09;4990673;28;20026;-70
2022/10/11 04:33:32;;;;;;;10.70;5.57;;;;;;;13.69;89.09;101215.78;4991436;28;20038;-70
2022/10/11 04:35:57;;;;;;;16.10;5.70;;;;;;;13.58;89.72;101212.78;4989344;28;20054;-70
2022/10/11 04:38:23;;;;;;;13.25;5.47;;;;;;;13.41;90.53;101207.00;4991458;28;20035;-71
2022/10/11 04:40:48;;;;;;;15.20;6.25;;;;;;;13.29;91.62;101222.06;4990858;28;20038;-70
2022/10/11 04:43:15;;;;;;;13.32;5.38;;;;;;;13.22;92.48;101218.34;4976940;28;20062;-69
2022/10/11 04:45:41;;;;;;;13.07;5.80;;;;;;;13.18;92.54;101214.75;4971696;28;20055;-70
2022/10/11 04:48:07;;;;;;;13.27;5.65;;;;;;;13.15;92.48;101203.41;4985912;28;20030;-68
2022/10/11 04:50:32;;;;;;;10.48;5.95;;;;;;;13.15;92.74;101206.00;5005585;28;20042;-70
2022/10/11 04:52:58;;;;;;;18.13;5.47;;;;;;;13.10;92.93;101211.00;4991665;28;20023;-72
2022/10/11 04:55:23;;;;;;;10.50;5.53;;;;;;;13.15;93.49;101216.38;4991441;28;20114;-70
2022/10/11 04:57:48;;;;;;;12.48;6.30;;;;;;;13.19;93.40;101219.09;4990284;28;20029;-70
2022/10/11 05:00:14;;;;;;;11.43;5.55;;;;;;;13.17;92.71;101215.59;4976051;28;20031;-70
2022/10/11 05:02:40;;;;;;;14.63;5.57;;;;;;;13.06;93.90;101222.03;4990141;28;20553;-71
2022/10/11 05:05:06;;;;;;;10.48;5.43;;;;;;;13.04;94.43;101219.41;4987268;28;20038;-71
2022/10/11 05:07:31;;;;;;;18.67;6.65;;;;;;;13.03;94.93;101212.44;4982363;28;20507;-70
2022/10/11 05:09:56;;;;;;;13.77;5.60;;;;;;;12.91;94.94;101181.75;4981497;28;20018;-70
2022/10/11 05:12:22;;;;;;;15.40;5.78;;;;;;;13.16;95.12;101216.41;4981296;28;20053;-70
2022/10/11 05:14:48;;;;;;;18.45;5.50;;;;;;;13.05;94.70;101210.81;4979707;28;20019;-70
2022/10/11 05:17:13;;;;;;;16.25;6.38;;;;;;;13.16;94.79;101213.81;4982013;28;20036;-69
2022/10/11 05:19:38;;;;;;;14.65;5.63;;;;;;;13.17;95.06;101215.59;4981089;28;20466;-70
2022/10/11 05:22:04;;;;;;;11.27;5.85;;;;;;;13.23;96.67;101222.72;4981960;28;20489;-70
2022/10/11 05:24:30;;;;;;;13.35;6.03;;;;;;;13.27;96.56;101219.41;4982385;28;20074;-70
2022/10/11 05:26:55;;;;;;;9.77;5.50;;;;;;;13.36;97.47;101227.53;4980224;28;20061;-70
2022/10/11 05:29:21;;;;;;;10.43;5.25;;;;;;;13.42;96.78;101230.41;4984139;28;20038;-69
2022/10/11 05:31:46;;;;;;;11.70;6.03;;;;;;;13.42;96.59;101217.44;4987945;28;20527;-70
2022/10/11 05:34:12;;;;;;;12.63;6.18;;;;;;;13.59;96.14;101232.72;4990983;28;20088;-70
2022/10/11 05:36:37;;;;;;;7.47;4.82;;;;;;;13.73;94.63;101239.31;4990804;28;20374;-70
2022/10/11 05:39:03;;;;;;;11.60;4.88;;;;;;;13.69;94.58;101239.16;4990892;28;20034;-70
2022/10/11 05:41:28;;;;;;;8.25;5.15;;;;;;;13.64;94.16;101231.19;4990796;28;20037;-70
2022/10/11 05:43:54;;;;;;;8.60;4.80;;;;;;;13.62;94.72;101238.03;4990526;28;20113;-69
2022/10/11 05:46:19;;;;;;;11.65;5.70;;;;;;;13.67;95.16;101240.78;4990728;28;20497;-69
2022/10/11 05:48:45;;;;;;;8.68;5.80;;;;;;;13.71;96.24;101246.16;4990991;28;20022;-69
2022/10/11 05:51:11;;;;;;;16.45;5.35;;;;;;;13.83;96.06;101239.63;4991154;28;20035;-70
2022/10/11 05:53:37;;;;;;;9.02;5.18;;;;;;;13.86;95.29;101234.56;5008879;28;20046;-70
2022/10/11 05:56:03;;;;;;;17.48;6.15;;;;;;;13.69;95.00;101195.03;4993283;28;20058;-70
2022/10/11 05:58:30;;;;;;;10.98;5.60;;;;;;;13.96;95.91;101239.25;4992079;28;20143;-69
2022/10/11 06:00:55;;;;;;;13.15;5.85;;;;;;;13.95;96.13;101250.47;4994610;28;20082;-69
2022/10/11 06:03:21;;;;;;;18.48;6.43;;;;;;;13.95;95.93;101259.97;4994547;28;20066;-74
2022/10/11 06:05:47;;;;;;;25.83;6.90;;;;;;;13.92;96.16;101255.56;4994493;28;20445;-69
2022/10/11 06:08:12;;;;;;;14.93;6.35;;;;;;;13.85;97.14;101256.16;4994251;28;20065;-70
2022/10/11 06:10:38;;;;;;;20.52;7.07;;;;;;;13.96;97.47;101246.19;4994192;28;20117;-70
2022/10/11 06:13:05;;;;;;;12.65;5.63;;;;;;;14.05;96.20;101257.75;4993977;28;20106;-70
2022/10/11 06:15:31;;;;;;;8.20;4.93;;;;;;;14.17;95.63;101257.31;4994279;28;20396;-70
2022/10/11 06:17:58;;;;;;;14.73;5.30;;;;;;;14.27;94.90;101255.91;4994227;28;20037;-69
2022/10/11 06:20:24;;;;;;;11.60;5.40;;;;;;;14.30;94.70;101240.41;4993297;28;20046;-71
2022/10/11 06:22:49;;;;;;;8.98;5.15;;;;;;;14.36;93.81;101239.75;4993980;28;20053;-70
2022/10/11 06:25:15;;;;;;;9.93;4.47;;;;;;;14.44;93.25;101256.47;4992592;28;20022;-70
2022/10/11 06:27:40;;;;;;;10.77;4.80;;;;;;;14.47;93.60;101238.41;4993812;28;20030;-70
2022/10/11 06:30:06;;;;;;;8.98;4.88;;;;;;;14.38;93.14;101214.69;4994073;28;20493;-70
2022/10/11 06:32:32;;;;;;;12.25;5.13;;;;;;;14.63;92.95;101247.59;4993861;28;20029;-70
2022/10/11 06:34:57;;;;;;;12.05;4.63;;;;;;;14.63;92.79;101238.88;4993775;28;20026;-70
2022/10/11 06:37:23;;;;;;;7.45;4.38;;;;;;;14.75;92.56;101247.13;4993628;28;20030;-70
2022/10/11 06:39:49;;;;;;;7.93;4.68;;;;;;;14.65;92.07;101199.16;4993663;28;20035;-70
2022/10/11 06:42:15;;;;;;;9.80;4.65;;;;;;;14.99;92.12;101247.03;4992196;28;20056;-70
2022/10/11 06:44:40;;;;;;;10.10;4.75;;;;;;;15.08;92.24;101240.34;4993459;28;20497;-70
2022/10/11 06:47:06;;;;;;;10.38;4.47;;;;;;;15.13;91.08;101241.38;4993561;28;20101;-70
2022/10/11 06:49:33;;;;;;;11.13;4.82;;;;;;;15.16;90.54;101234.53;4993562;28;20030;-70
2022/10/11 06:51:58;;;;;;;7.22;4.53;;;;;;;15.33;90.09;101244.59;4993481;28;20433;-69
2022/10/11 06:54:23;;;;;;;9.40;4.85;;;;;;;15.22;90.20;101223.44;4993437;28;20037;-69
2022/10/11 06:56:49;;;;;;;7.60;4.70;;;;;;;15.40;90.66;101240.44;4993507;28;20041;-69
2022/10/11 06:59:15;;;;;;;9.13;4.70;;;;;;;15.46;90.38;101245.81;4993500;28;20503;-70
2022/10/11 07:01:41;;;;;;;16.83;5.10;;;;;;;15.42;91.03;101230.97;5023968;28;20034;-70
2022/10/11 07:04:07;;;;;;;11.60;4.40;;;;;;;15.25;91.10;101209.66;4992215;28;20054;-70
2022/10/11 07:06:36;;;;;;;10.63;4.68;;;;;;;15.19;92.08;101203.44;4993201;28;20110;-70
2022/10/11 07:09:03;;;;;;;8.00;4.13;;;;;;;15.29;91.63;101229.69;4992996;28;20030;-70
2022/10/11 07:11:28;;;;;;;9.32;4.03;;;;;;;15.31;92.62;101234.09;4993095;28;20034;-69
2022/10/11 07:13:59;;;;;;;9.00;4.65;;;;;;;15.40;92.11;101235.22;4993182;28;20161;-69
2022/10/11 07:16:26;;;;;;;9.48;4.13;;;;;;;15.48;92.78;101236.34;5007909;28;20104;-69
2022/10/11 07:18:57;;;;;;;8.40;4.15;;;;;;;15.51;92.18;101233.81;4992933;28;20026;-70
2022/10/11 07:21:23;;;;;;;8.35;4.45;;;;;;;15.44;91.00;101200.66;5008004;28;20062;-70
2022/10/11 07:23:48;;;;;;;11.10;4.38;;;;;;;15.60;91.34;101215.88;4992745;28;20065;-69
2022/10/11 07:26:14;;;;;;;10.57;4.63;;;;;;;15.80;90.66;101236.38;4992735;28;20034;-70
2022/10/11 07:28:40;;;;;;;7.32;3.72;;;;;;;15.85;90.73;101230.50;4992905;28;20464;-70
2022/10/11 07:31:09;;;;;;;7.72;4.05;;;;;;;15.83;91.06;101228.69;4992900;28;20026;-70
2022/10/11 07:33:34;;;;;;;8.40;4.03;;;;;;;15.80;91.75;101223.34;4992833;28;20674;-70
2022/10/11 07:35:59;;;;;;;10.38;4.53;;;;;;;15.58;91.06;101191.53;4992473;28;20357;-70
2022/10/11 07:38:25;;;;;;;8.73;4.20;;;;;;;15.79;90.72;101213.78;4992368;28;20058;-70
2022/10/11 07:40:51;;;;;;;13.52;4.03;;;;;;;15.88;89.49;101208.84;4992657;28;20405;-70
2022/10/11 07:43:16;;;;;;;10.57;3.90;;;;;;;16.10;89.98;101215.53;4992477;28;20473;-67
2022/10/11 07:45:44;;;;;;;12.10;4.65;;;;;;;16.21;89.88;101231.41;4992356;28;20061;-70
2022/10/11 07:48:10;;;;;;;12.95;3.97;;;;;;;16.09;87.69;101194.66;4992445;28;20405;-69
2022/10/11 07:50:36;;;;;;;8.15;4.00;;;;;;;16.42;89.05;101228.47;4992380;28;20084;-70
2022/10/11 07:53:02;;;;;;;14.82;5.93;;;;;;;16.45;88.06;101227.69;4992352;28;20026;-70
2022/10/11 07:55:29;;;;;;;11.40;4.90;;;;;;;16.53;90.33;101230.50;4992683;28;20038;-70
2022/10/11 07:57:55;;;;;;;10.13;3.83;;;;;;;16.56;87.43;101228.84;4992349;28;20114;-68
2022/10/11 08:00:21;;;;;;;8.40;3.90;;;;;;;16.60;86.49;101230.66;4992235;28;20034;-69
2022/10/11 08:02:46;;;;;;;10.38;4.55;;;;;;;16.54;87.13;101193.16;4992114;28;20439;-70
2022/10/11 08:05:12;;;;;;;8.32;3.90;;;;;;;16.88;84.50;101228.72;4991983;28;20076;-70
2022/10/11 08:07:37;;;;;;;6.55;3.70;;;;;;;16.92;84.52;101211.44;4991870;28;20030;-70
2022/10/11 08:10:07;;;;;;;8.30;3.47;;;;;;;17.06;83.42;101225.69;4989804;28;20121;-69
2022/10/11 08:12:33;;;;;;;7.30;3.92;;;;;;;17.12;85.79;101223.22;4988093;28;20048;-70
2022/10/11 08:14:59;;;;;;;9.48;4.13;;;;;;;17.16;84.66;101218.94;4972212;28;20561;-71
2022/10/11 08:17:25;;;;;;;7.35;3.85;;;;;;;17.21;82.16;101225.16;4989955;28;20045;-70
2022/10/11 08:19:51;;;;;;;9.82;4.10;;;;;;;17.22;82.51;101213.88;4991929;28;20030;-70
2022/10/11 08:22:16;;;;;;;9.00;4.35;;;;;;;17.37;82.31;101212.41;4991647;28;20034;-70
2022/10/11 08:24:41;;;;;;;8.40;3.42;;;;;;;17.50;81.45;101224.88;4991683;28;20469;-70
2022/10/11 08:27:07;;;;;;;7.40;4.30;;;;;;;17.55;82.29;101218.00;4991669;28;20029;-70
2022/10/11 08:29:32;;;;;;;13.00;5.03;;;;;;;17.56;80.78;101217.16;4991669;28;20405;-70
2022/10/11 08:31:58;;;;;;;14.60;4.97;;;;;;;17.61;80.60;101214.66;4991587;28;20023;-70
2022/10/11 08:34:23;;;;;;;9.35;4.20;;;;;;;17.70;79.75;101214.81;4988032;28;20468;-71
2022/10/11 08:36:49;;;;;;;8.77;4.32;;;;;;;17.66;78.21;101205.19;4983559;28;20027;-70
2022/10/11 08:39:14;;;;;;;146.77;92.95;;;;;;;17.77;79.20;101208.00;4987386;28;20026;-73
2022/10/11 08:41:54;;;;;;;45.90;28.90;;;;;;;17.69;78.21;101194.78;4987625;28;20113;-68
2022/10/11 08:44:42;;;;;;;239.98;151.75;;;;;;;17.78;79.09;101204.53;4983925;28;20033;-70
2022/10/11 08:47:14;;;;;;;34.05;19.73;;;;;;;17.78;81.02;101202.81;4982228;28;20109;-70
2022/10/11 08:49:40;;;;;;;16.52;9.68;;;;;;;17.82;78.76;101205.47;4985997;28;20042;-69
2022/10/11 08:52:17;;;;;;;20.17;6.75;;;;;;;17.91;80.36;101206.53;4981387;28;20019;-70
2022/10/11 08:54:58;;;;;;;10.98;5.07;;;;;;;18.03;78.35;101198.06;4982244;28;20036;-70
2022/10/11 08:57:28;;;;;;;7.80;4.50;;;;;;;18.07;78.04;101197.28;4982034;28;20175;-69
2022/10/11 08:59:59;;;;;;;14.73;5.22;;;;;;;17.89;77.22;101161.19;4984636;28;20054;-70
2022/10/11 09:02:41;;;;;;;22.75;15.43;;;;;;;18.05;78.16;101203.31;4984303;28;20069;-70
2022/10/11 09:05:12;;;;;;;14.63;5.10;;;;;;;17.88;77.56;101149.00;4989805;28;20041;-70
2022/10/11 09:07:47;;;;;;;12.25;4.82;;;;;;;18.25;75.44;101188.84;4988668;28;20037;-70
2022/10/11 09:10:41;;;;;;;10.88;5.35;;;;;;;18.32;76.39;101186.34;4990660;28;20037;-70
2022/10/11 09:13:30;;;;;;;11.00;4.90;;;;;;;18.62;75.92;101182.44;4988425;28;20037;-71
2022/10/11 09:16:21;;;;;;;10.23;5.85;;;;;;;18.83;74.21;101187.13;4988384;28;20026;-71
2022/10/11 09:18:52;;;;;;;9.25;5.22;;;;;;;18.91;73.28;101175.94;4987119;28;20121;-72
2022/10/11 09:21:29;;;;;;;11.25;5.50;;;;;;;18.86;70.19;101172.34;4988283;28;20679;-70
2022/10/11 09:24:12;;;;;;;12.00;5.35;;;;;;;18.90;72.19;101178.50;4985533;28;20035;-70
2022/10/11 09:27:11;;;;;;;6.97;4.55;;;;;;;18.94;69.59;101175.13;4988771;28;20113;-72
2022/10/11 09:30:03;;;;;;;7.90;4.78;;;;;;;19.08;70.29;101177.94;4952254;29;20097;-72
2022/10/11 09:32:34;;;;;;;9.82;5.00;;;;;;;19.20;70.16;101171.97;4953583;29;20117;-68
2022/10/11 09:35:18;;;;;;;7.10;4.93;;;;;;;19.30;68.41;101159.88;4953398;29;20071;-71
2022/10/11 09:38:05;;;;;;;9.10;5.10;;;;;;;19.56;67.52;101170.63;4953168;29;20537;-71
2022/10/11 09:41:06;;;;;;;11.77;4.88;;;;;;;19.63;65.83;101164.63;4949370;29;20186;-71
2022/10/11 09:43:32;;;;;;;8.63;5.15;;;;;;;19.06;67.25;101116.84;4949543;29;20055;-71
2022/10/11 09:45:57;;;;;;;11.93;5.18;;;;;;;19.14;69.38;101159.69;4952886;29;20055;-70
2022/10/11 09:48:27;;;;;;;12.73;5.15;;;;;;;19.14;67.75;101128.28;4952871;29;20050;-70
2022/10/11 09:51:01;;;;;;;9.98;4.60;;;;;;;19.51;70.82;101160.09;4953113;29;20089;-71
2022/10/11 09:54:00;;;;;;;9.82;4.65;;;;;;;19.77;66.21;101148.16;4936940;29;20039;-74
2022/10/11 09:56:29;;;;;;;9.40;5.38;;;;;;;19.91;66.64;101145.72;4907496;29;20110;-73
2022/10/11 09:59:26;;;;;;;11.63;5.22;;;;;;;20.00;67.04;101151.00;4914940;29;20432;-71
2022/10/11 10:02:25;;;;;;;9.52;5.50;;;;;;;19.99;65.05;101141.44;4914997;29;20032;-71
2022/10/11 10:04:58;;;;;;;13.73;5.50;;;;;;;19.85;64.13;101136.03;4896703;29;20131;-71
2022/10/11 10:07:24;;;;;;;8.50;5.43;;;;;;;19.89;64.11;101140.47;4900967;29;20048;-69
2022/10/11 10:09:51;;;;;;;9.25;4.65;;;;;;;19.92;63.21;101140.47;4911284;29;20035;-71
2022/10/11 10:12:39;;;;;;;10.55;4.70;;;;;;;19.88;62.73;101136.06;4912149;29;20087;-69
2022/10/11 10:15:18;;;;;;;7.55;5.10;;;;;;;19.85;63.51;101131.69;4875718;29;20029;-71
2022/10/11 10:17:51;;;;;;;8.75;4.50;;;;;;;19.63;64.53;101130.56;4867610;29;20045;-71
2022/10/11 10:20:35;;;;;;;6.63;4.43;;;;;;;19.37;64.79;101118.06;4875158;29;20453;-75
2022/10/11 10:23:16;;;;;;;11.10;5.40;;;;;;;19.45;66.51;101118.16;4875403;29;20120;-74
2022/10/11 10:25:49;;;;;;;8.48;5.15;;;;;;;19.57;64.70;101122.63;4874934;29;20076;-74
2022/10/11 10:28:22;;;;;;;10.95;5.70;;;;;;;19.71;65.18;101122.78;4874758;29;20040;-75
2022/10/11 10:30:56;;;;;;;7.47;5.25;;;;;;;19.62;65.67;101086.03;4890706;29;20067;-74
2022/10/11 10:33:24;;;;;;;10.00;5.43;;;;;;;19.94;62.40;101116.88;4907086;29;20044;-73
2022/10/11 10:36:02;;;;;;;9.25;5.70;;;;;;;19.73;63.58;101111.44;4911712;29;20040;-74
2022/10/11 10:38:31;;;;;;;9.40;6.05;;;;;;;19.81;64.02;101116.78;4910049;29;20064;-74
2022/10/11 10:41:07;;;;;;;9.13;5.07;;;;;;;19.72;62.75;101103.56;4939021;29;20572;-76
2022/10/11 10:43:37;;;;;;;7.13;5.35;;;;;;;19.68;65.75;101076.47;4951277;29;20039;-74
2022/10/11 10:46:33;;;;;;;10.27;5.40;;;;;;;19.91;63.60;101120.38;4970982;28;20089;-72
2022/10/11 10:49:20;;;;;;;11.60;5.20;;;;;;;19.99;63.64;101105.59;4992663;28;20133;-80
2022/10/11 10:52:04;;;;;;;9.00;5.13;;;;;;;20.01;62.93;101097.75;4993425;28;20046;-76
2022/10/11 10:54:51;;;;;;;8.65;5.22;;;;;;;20.04;62.48;101098.66;4990837;28;20066;-73
2022/10/11 10:57:26;;;;;;;7.20;4.63;;;;;;;19.86;62.13;101059.19;4990880;28;20015;-72
2022/10/11 11:00:15;;;;;;;8.40;4.82;;;;;;;20.19;62.06;101100.50;4991832;28;20038;-73
2022/10/11 11:03:05;;;;;;;11.82;5.45;;;;;;;20.16;61.49;101091.75;4992102;28;20022;-71
2022/10/11 11:05:58;;;;;;;12.02;5.35;;;;;;;20.16;63.51;101087.41;4991823;28;20034;-74
2022/10/11 11:09:06;;;;;;;17.65;11.40;;;;;;;20.13;65.07;101078.63;4991830;28;20034;-73
2022/10/11 11:11:47;;;;;;;10.70;5.80;;;;;;;20.05;63.37;101086.44;4991937;28;20038;-73
2022/10/11 11:14:25;;;;;;;9.32;4.45;;;;;;;19.90;63.25;101075.81;4990485;28;20108;-73
2022/10/11 11:16:56;;;;;;;10.50;6.00;;;;;;;20.08;62.89;101078.59;4990563;28;20033;-74
2022/10/11 11:19:45;;;;;;;10.95;4.90;;;;;;;20.15;61.61;101077.75;4991418;28;20056;-73
2022/10/11 11:22:34;;;;;;;9.27;4.75;;;;;;;20.18;62.14;101064.66;4992365;28;20030;-75
2022/10/11 11:25:02;;;;;;;11.35;6.82;;;;;;;20.23;61.35;101069.94;4992219;28;20034;-72
2022/10/11 11:27:34;;;;;;;156.55;114.63;;;;;;;19.98;61.89;101066.28;5007155;28;20477;-70
2022/10/11 11:30:22;;;;;;;71.28;51.97;;;;;;;20.08;62.81;101062.00;4991440;28;20042;-72
2022/10/11 11:33:21;;;;;;;15.45;8.05;;;;;;;20.23;61.77;101055.97;4992150;28;20030;-72
2022/10/11 11:35:53;;;;;;;13.82;7.82;;;;;;;20.34;61.60;101052.53;4991306;28;20109;-71